Cumby, Texas
Current Conditions -  °F | °C
As of 7:35 PM on Thursday 27 Nov 2014 (Local Time) from KSLR Reporting Station
Clear Clear  
Wind Chill: 46°   Ceiling: Unl
Heat Index: 48°   Visibility: 10mi
Dew Point: 20°   Wind: 6mph
Humidity: 33%   Direction: 130°SE
Pressure: 30.42"   Gusts: NA
Location:  33.14°N, 95.84°W
Report Text: KSLR 280135Z AUTO 13005KT 10SM CLR 09/M06 A3042 RMK AO2 T00901064
Loading
Personal Weather Stations






























Interactive Weather Map New forecast layout! Learn more

10-Day Weather Forecast

Advertisements
Track Severe Weather on mobile